KDKK/DKK METAR and TAF weather

Enter ICAO airport designator
Station Type Date Time Source
KDKK METAR 2018/07/21 03:53 UTC NOAA

KDKK 210353Z AUTO 15012G24KT 10SM FEW120 25/14 A2989 RMK AO2 PK WND 16028/0333 SLP116 T02500144 $


Station Type Date Time Source
KDKK Decoded METAR 2018/07/21 03:53 UTC NOAA

CHAUTAUQUA COUNTY/DUNKIRK, NY, United States (KDKK) 42-30N 079-17W 202M
Jul 20, 2018 - 11:53 PM EDT / 2018.07.21 0353 UTC
Wind: from the SSE (150 degrees) at 14 MPH (12 KT) gusting to 28 MPH (24 KT):0
Visibility: 10 mile(s):0
Sky conditions: mostly clear
Temperature: 77.0 F (25.0 C)
Dew Point: 57.9 F (14.4 C)
Relative Humidity: 51%
Pressure (altimeter): 29.89 in. Hg (1012 hPa)
ob: KDKK 210353Z AUTO 15012G24KT 10SM FEW120 25/14 A2989 RMK AO2 PK WND 16028/0333 SLP116 T02500144
cycle: 4

Station Type Date Time Source
KDKK TAF UTC NOAA

Error!


Example: see airport list